Time,TemperatureF,DewpointF,PressureIn,WindDirection,WindDirectionDegrees,WindSpeedMPH,WindSpeedGustMPH,Humidity,HourlyPrecipIn,Conditions,Clouds,dailyrainin,SoftwareType,DateUTC
2013-07-15 00:04:00,75.8,68.8,29.65,SE,128,0.0,4.0,79,0.00,,,0.00,Wunderground v.1.15,2013-07-15 05:04:00,
2013-07-15 00:09:00,75.8,68.8,29.65,SE,128,6.0,6.0,79,0.00,,,0.00,Wunderground v.1.15,2013-07-15 05:09:00,
2013-07-15 00:15:00,75.9,68.9,29.65,SE,128,0.0,9.0,79,0.00,,,0.00,Wunderground v.1.15,2013-07-15 05:15:00,
2013-07-15 00:20:00,76.1,69.1,29.65,SE,128,0.0,1.0,79,0.00,,,0.00,Wunderground v.1.15,2013-07-15 05:20:00,
2013-07-15 00:26:00,76.4,69.4,29.65,SE,128,0.0,6.0,79,0.00,,,0.00,Wunderground v.1.15,2013-07-15 05:26:00,
2013-07-15 00:32:00,76.3,69.3,29.65,SE,128,6.0,6.0,79,0.00,,,0.00,Wunderground v.1.15,2013-07-15 05:32:00,
2013-07-15 00:37:00,76.4,69.0,29.65,SE,128,0.0,6.0,78,0.00,,,0.00,Wunderground v.1.15,2013-07-15 05:37:00,
2013-07-15 00:43:00,76.4,69.0,29.65,SE,128,0.0,4.0,78,0.00,,,0.00,Wunderground v.1.15,2013-07-15 05:43:00,
2013-07-15 00:48:00,76.5,68.7,29.66,SE,128,0.0,4.0,77,0.00,,,0.00,Wunderground v.1.15,2013-07-15 05:48:00,
2013-07-15 00:53:00,76.4,68.7,29.65,SE,128,0.0,0.0,77,0.00,,,0.00,Wunderground v.1.15,2013-07-15 05:53:00,
2013-07-15 00:59:00,76.3,68.9,29.65,SE,128,0.0,0.0,78,0.00,,,0.00,Wunderground v.1.15,2013-07-15 05:59:00,
2013-07-15 01:04:00,76.2,68.8,29.65,SE,128,0.0,0.0,78,0.00,,,0.00,Wunderground v.1.15,2013-07-15 06:04:00,
2013-07-15 01:10:00,76.1,68.7,29.65,SE,128,0.0,0.0,78,0.00,,,0.00,Wunderground v.1.15,2013-07-15 06:10:00,
2013-07-15 01:15:00,75.8,68.8,29.65,SE,128,0.0,0.0,79,0.00,,,0.00,Wunderground v.1.15,2013-07-15 06:15:00,
2013-07-15 01:20:00,75.7,68.7,29.65,SE,128,0.0,0.0,79,0.00,,,0.00,Wunderground v.1.15,2013-07-15 06:20:00,
2013-07-15 01:26:00,76.5,69.5,29.65,SE,128,0.0,0.0,79,0.00,,,0.00,Wunderground v.1.15,2013-07-15 06:26:00,
2013-07-15 01:31:00,75.4,-99.9,29.66,SE,128,0.0,0.0,255,0.00,,,0.00,Wunderground v.1.15,2013-07-15 06:31:00,
2013-07-15 01:37:00,75.0,68.8,29.66,SE,128,0.0,0.0,81,0.00,,,0.00,Wunderground v.1.15,2013-07-15 06:37:00,
2013-07-15 01:42:00,74.8,68.6,29.65,SE,128,0.0,0.0,81,0.00,,,0.00,Wunderground v.1.15,2013-07-15 06:42:00,
2013-07-15 01:47:00,74.5,68.6,29.65,SE,128,0.0,0.0,82,0.00,,,0.00,Wunderground v.1.15,2013-07-15 06:47:00,
2013-07-15 01:53:00,74.4,68.5,29.66,SE,128,0.0,0.0,82,0.00,,,0.00,Wunderground v.1.15,2013-07-15 06:53:00,
2013-07-15 01:58:00,74.2,68.7,29.66,SE,128,0.0,0.0,83,0.00,,,0.00,Wunderground v.1.15,2013-07-15 06:58:00,
2013-07-15 02:03:00,74.1,68.3,29.66,SE,128,0.0,0.0,82,0.00,,,0.00,Wunderground v.1.15,2013-07-15 07:03:00,
2013-07-15 02:08:00,73.9,68.4,29.66,SE,128,0.0,0.0,83,0.00,,,0.00,Wunderground v.1.15,2013-07-15 07:08:00,
2013-07-15 02:13:00,73.8,68.3,29.66,SE,128,0.0,0.0,83,0.00,,,0.00,Wunderground v.1.15,2013-07-15 07:13:00,
2013-07-15 02:18:00,73.6,68.5,29.66,SE,128,0.0,0.0,84,0.00,,,0.00,Wunderground v.1.15,2013-07-15 07:18:00,
2013-07-15 02:23:00,73.3,68.2,29.65,SE,128,0.0,0.0,84,0.00,,,0.00,Wunderground v.1.15,2013-07-15 07:23:00,
2013-07-15 02:28:00,73.5,68.4,29.66,SE,128,0.0,0.0,84,0.00,,,0.00,Wunderground v.1.15,2013-07-15 07:28:00,
2013-07-15 02:34:00,73.3,67.8,29.65,SE,128,0.0,0.0,83,0.00,,,0.00,Wunderground v.1.15,2013-07-15 07:34:00,
2013-07-15 02:39:00,73.0,68.2,29.66,SE,128,0.0,0.0,85,0.00,,,0.00,Wunderground v.1.15,2013-07-15 07:39:00,
2013-07-15 02:44:00,72.7,67.9,29.66,SE,128,0.0,0.0,85,0.00,,,0.00,Wunderground v.1.15,2013-07-15 07:44:00,
2013-07-15 02:50:00,72.6,68.2,29.66,SE,128,0.0,0.0,86,0.00,,,0.00,Wunderground v.1.15,2013-07-15 07:50:00,
2013-07-15 02:55:00,72.4,68.0,29.66,SE,128,0.0,0.0,86,0.00,,,0.00,Wunderground v.1.15,2013-07-15 07:55:00,
2013-07-15 03:00:00,72.2,67.8,29.65,SE,128,0.0,0.0,86,0.00,,,0.00,Wunderground v.1.15,2013-07-15 08:00:00,
2013-07-15 03:05:00,72.1,68.0,29.65,SE,128,0.0,0.0,87,0.00,,,0.00,Wunderground v.1.15,2013-07-15 08:05:00,
2013-07-15 03:11:00,72.0,67.9,29.66,SE,128,0.0,0.0,87,0.00,,,0.00,Wunderground v.1.15,2013-07-15 08:11:00,
2013-07-15 03:16:00,71.9,67.8,29.65,SE,128,0.0,0.0,87,0.00,,,0.00,Wunderground v.1.15,2013-07-15 08:16:00,
2013-07-15 03:22:00,71.7,67.6,29.66,SE,128,0.0,0.0,87,0.00,,,0.00,Wunderground v.1.15,2013-07-15 08:22:00,
2013-07-15 03:27:00,71.5,67.8,29.66,SE,128,0.0,0.0,88,0.00,,,0.00,Wunderground v.1.15,2013-07-15 08:27:00,
2013-07-15 03:32:00,71.3,67.6,29.66,SE,128,0.0,0.0,88,0.00,,,0.00,Wunderground v.1.15,2013-07-15 08:32:00,
2013-07-15 03:38:00,71.3,67.9,29.65,SE,128,0.0,0.0,89,0.00,,,0.00,Wunderground v.1.15,2013-07-15 08:38:00,
2013-07-15 03:43:00,71.2,67.8,29.65,SE,128,0.0,0.0,89,0.00,,,0.00,Wunderground v.1.15,2013-07-15 08:43:00,
2013-07-15 03:48:00,71.0,67.6,29.65,SE,128,0.0,0.0,89,0.00,,,0.00,Wunderground v.1.15,2013-07-15 08:48:00,
2013-07-15 03:53:00,70.9,67.5,29.65,SE,128,0.0,0.0,89,0.00,,,0.00,Wunderground v.1.15,2013-07-15 08:53:00,
2013-07-15 03:59:00,70.7,67.3,29.65,SE,128,0.0,0.0,89,0.00,,,0.00,Wunderground v.1.15,2013-07-15 08:59:00,
2013-07-15 04:04:00,70.6,67.2,29.66,SE,128,0.0,0.0,89,0.00,,,0.00,Wunderground v.1.15,2013-07-15 09:04:00,
2013-07-15 04:09:00,70.6,67.2,29.66,SE,128,0.0,0.0,89,0.00,,,0.00,Wunderground v.1.15,2013-07-15 09:09:00,
2013-07-15 04:14:00,70.6,67.8,29.66,SE,128,0.0,0.0,91,0.00,,,0.00,Wunderground v.1.15,2013-07-15 09:14:00,
2013-07-15 04:19:00,70.6,67.8,29.66,SE,128,0.0,0.0,91,0.00,,,0.00,Wunderground v.1.15,2013-07-15 09:19:00,
2013-07-15 04:24:00,70.6,67.8,29.66,SE,128,0.0,2.0,91,0.00,,,0.00,Wunderground v.1.15,2013-07-15 09:24:00,
2013-07-15 04:29:00,70.5,67.7,29.66,SE,128,0.0,2.0,91,0.00,,,0.00,Wunderground v.1.15,2013-07-15 09:29:00,
2013-07-15 04:35:00,70.5,67.7,29.66,SE,128,0.0,0.0,91,0.00,,,0.00,Wunderground v.1.15,2013-07-15 09:35:00,
2013-07-15 04:40:00,70.7,67.6,29.67,SE,128,0.0,0.0,90,0.00,,,0.00,Wunderground v.1.15,2013-07-15 09:40:00,
2013-07-15 04:45:00,70.5,67.7,29.67,SE,128,0.0,0.0,91,0.00,,,0.00,Wunderground v.1.15,2013-07-15 09:45:00,
2013-07-15 04:50:00,70.4,67.6,29.67,SE,128,0.0,0.0,91,0.00,,,0.00,Wunderground v.1.15,2013-07-15 09:50:00,
2013-07-15 04:55:00,70.4,67.6,29.67,SE,128,0.0,0.0,91,0.00,,,0.00,Wunderground v.1.15,2013-07-15 09:55:00,
2013-07-15 05:00:00,70.3,67.5,29.67,SE,128,0.0,0.0,91,0.00,,,0.00,Wunderground v.1.15,2013-07-15 10:00:00,
2013-07-15 05:05:00,70.3,67.5,29.67,SE,128,0.0,0.0,91,0.00,,,0.00,Wunderground v.1.15,2013-07-15 10:05:00,
2013-07-15 05:10:00,70.2,67.4,29.67,SE,128,0.0,0.0,91,0.00,,,0.00,Wunderground v.1.15,2013-07-15 10:10:00,
2013-07-15 05:16:00,70.1,67.3,29.67,SE,128,0.0,0.0,91,0.00,,,0.00,Wunderground v.1.15,2013-07-15 10:16:00,
2013-07-15 05:21:00,70.0,67.3,29.67,SE,128,0.0,0.0,91,0.00,,,0.00,Wunderground v.1.15,2013-07-15 10:21:00,
2013-07-15 05:26:00,69.9,67.2,29.67,SE,128,0.0,0.0,91,0.00,,,0.00,Wunderground v.1.15,2013-07-15 10:26:00,
2013-07-15 05:32:00,69.8,67.4,29.67,SE,128,0.0,0.0,92,0.00,,,0.00,Wunderground v.1.15,2013-07-15 10:32:00,
2013-07-15 05:37:00,69.8,67.4,29.67,SE,128,0.0,0.0,92,0.00,,,0.00,Wunderground v.1.15,2013-07-15 10:37:00,
2013-07-15 05:42:00,69.8,67.4,29.67,SE,128,0.0,0.0,92,0.00,,,0.00,Wunderground v.1.15,2013-07-15 10:42:00,
2013-07-15 05:48:00,69.8,67.4,29.68,SE,128,0.0,0.0,92,0.00,,,0.00,Wunderground v.1.15,2013-07-15 10:48:00,
2013-07-15 05:53:00,69.9,67.5,29.68,SE,128,0.0,0.0,92,0.00,,,0.00,Wunderground v.1.15,2013-07-15 10:53:00,
2013-07-15 05:59:00,69.9,67.5,29.68,SE,128,0.0,0.0,92,0.00,,,0.00,Wunderground v.1.15,2013-07-15 10:59:00,
2013-07-15 06:04:00,69.9,67.5,29.68,SE,128,0.0,0.0,92,0.00,,,0.00,Wunderground v.1.15,2013-07-15 11:04:00,
2013-07-15 06:09:00,69.9,67.5,29.68,SE,128,0.0,0.0,92,0.00,,,0.00,Wunderground v.1.15,2013-07-15 11:09:00,
2013-07-15 06:14:00,69.9,67.8,29.69,SE,128,0.0,0.0,93,0.00,,,0.00,Wunderground v.1.15,2013-07-15 11:14:00,
2013-07-15 06:20:00,70.0,67.9,29.69,SE,128,0.0,0.0,93,0.00,,,0.00,Wunderground v.1.15,2013-07-15 11:20:00,
2013-07-15 06:25:00,70.1,68.0,29.69,SE,128,0.0,0.0,93,0.00,,,0.00,Wunderground v.1.15,2013-07-15 11:25:00,
2013-07-15 06:31:00,70.0,67.6,29.69,SE,128,0.0,0.0,92,0.00,,,0.00,Wunderground v.1.15,2013-07-15 11:31:00,
2013-07-15 06:36:00,70.1,68.0,29.69,SE,128,0.0,0.0,93,0.00,,,0.00,Wunderground v.1.15,2013-07-15 11:36:00,
2013-07-15 06:41:00,70.2,68.1,29.69,SE,128,0.0,0.0,93,0.00,,,0.00,Wunderground v.1.15,2013-07-15 11:41:00,
2013-07-15 06:47:00,70.3,68.2,29.69,SE,128,0.0,0.0,93,0.00,,,0.00,Wunderground v.1.15,2013-07-15 11:47:00,
2013-07-15 06:52:00,70.5,68.4,29.69,SE,128,0.0,0.0,93,0.00,,,0.00,Wunderground v.1.15,2013-07-15 11:52:00,
2013-07-15 06:57:00,70.8,68.7,29.69,SE,128,0.0,0.0,93,0.00,,,0.00,Wunderground v.1.15,2013-07-15 11:57:00,
2013-07-15 07:03:00,71.1,68.7,29.69,SE,128,0.0,0.0,92,0.00,,,0.00,Wunderground v.1.15,2013-07-15 12:03:00,
2013-07-15 07:08:00,71.4,69.3,29.69,SE,128,0.0,0.0,93,0.00,,,0.00,Wunderground v.1.15,2013-07-15 12:08:00,
2013-07-15 07:13:00,71.8,69.3,29.70,SE,128,0.0,0.0,92,0.00,,,0.00,Wunderground v.1.15,2013-07-15 12:13:00,
2013-07-15 07:18:00,72.5,70.0,29.70,SE,128,0.0,0.0,92,0.00,,,0.00,Wunderground v.1.15,2013-07-15 12:18:00,
2013-07-15 07:23:00,72.9,69.8,29.70,SE,128,0.0,0.0,90,0.00,,,0.00,Wunderground v.1.15,2013-07-15 12:23:00,
2013-07-15 07:29:00,73.4,70.0,29.70,SE,128,0.0,4.0,89,0.00,,,0.00,Wunderground v.1.15,2013-07-15 12:29:00,
2013-07-15 07:34:00,74.2,70.4,29.70,SE,128,0.0,1.0,88,0.00,,,0.00,Wunderground v.1.15,2013-07-15 12:34:00,
2013-07-15 07:39:00,74.8,70.3,29.70,SE,128,0.0,4.0,86,0.00,,,0.00,Wunderground v.1.15,2013-07-15 12:39:00,
2013-07-15 07:45:00,75.4,70.6,29.70,SE,128,0.0,0.0,85,0.00,,,0.00,Wunderground v.1.15,2013-07-15 12:45:00,
2013-07-15 07:50:00,75.9,70.7,29.70,SE,128,0.0,0.0,84,0.00,,,0.00,Wunderground v.1.15,2013-07-15 12:50:00,
2013-07-15 07:55:00,76.3,71.1,29.70,SE,128,0.0,0.0,84,0.00,,,0.00,Wunderground v.1.15,2013-07-15 12:55:00,
2013-07-15 08:01:00,76.7,71.1,29.70,SE,128,0.0,5.0,83,0.00,,,0.00,Wunderground v.1.15,2013-07-15 13:01:00,
2013-07-15 08:06:00,76.8,70.5,29.70,SE,128,0.0,7.0,81,0.00,,,0.00,Wunderground v.1.15,2013-07-15 13:06:00,
2013-07-15 08:11:00,77.0,70.7,29.70,SE,128,0.0,1.0,81,0.00,,,0.00,Wunderground v.1.15,2013-07-15 13:11:00,
2013-07-15 08:16:00,77.2,70.9,29.71,SE,128,0.0,1.0,81,0.00,,,0.00,Wunderground v.1.15,2013-07-15 13:16:00,
2013-07-15 08:22:00,77.5,71.2,29.71,SE,128,0.0,0.0,81,0.00,,,0.00,Wunderground v.1.15,2013-07-15 13:22:00,
2013-07-15 08:27:00,77.7,71.4,29.71,SE,128,0.0,0.0,81,0.00,,,0.00,Wunderground v.1.15,2013-07-15 13:27:00,
2013-07-15 08:32:00,78.2,71.5,29.71,SE,128,0.0,2.0,80,0.00,,,0.00,Wunderground v.1.15,2013-07-15 13:32:00,
2013-07-15 08:37:00,78.3,71.2,29.70,SE,128,0.0,5.0,79,0.00,,,0.00,Wunderground v.1.15,2013-07-15 13:37:00,
2013-07-15 08:42:00,78.8,71.4,29.71,SE,128,0.0,7.0,78,0.00,,,0.00,Wunderground v.1.15,2013-07-15 13:42:00,
2013-07-15 08:48:00,79.2,71.7,29.71,SE,128,5.0,7.0,78,0.00,,,0.00,Wunderground v.1.15,2013-07-15 13:48:00,
2013-07-15 08:53:00,79.4,71.9,29.71,SE,128,0.0,5.0,78,0.00,,,0.00,Wunderground v.1.15,2013-07-15 13:53:00,
2013-07-15 08:58:00,79.9,71.7,29.71,SE,128,5.0,8.0,76,0.00,,,0.00,Wunderground v.1.15,2013-07-15 13:58:00,
2013-07-15 09:04:00,80.0,72.1,29.71,SE,128,0.0,7.0,77,0.00,,,0.00,Wunderground v.1.15,2013-07-15 14:04:00,
2013-07-15 09:09:00,80.4,72.1,29.71,SE,128,0.0,7.0,76,0.00,,,0.00,Wunderground v.1.15,2013-07-15 14:09:00,
2013-07-15 09:14:00,80.7,72.0,29.71,SE,128,0.0,9.0,75,0.00,,,0.00,Wunderground v.1.15,2013-07-15 14:14:00,
2013-07-15 09:19:00,81.1,72.0,29.71,SE,128,0.0,9.0,74,0.00,,,0.00,Wunderground v.1.15,2013-07-15 14:19:00,
2013-07-15 09:25:00,81.4,71.9,29.71,SE,128,0.0,6.0,73,0.00,,,0.00,Wunderground v.1.15,2013-07-15 14:25:00,
2013-07-15 09:30:00,81.7,72.6,29.71,SE,128,0.0,1.0,74,0.00,,,0.00,Wunderground v.1.15,2013-07-15 14:30:00,
2013-07-15 09:35:00,82.1,72.2,29.72,SE,128,0.0,6.0,72,0.00,,,0.00,Wunderground v.1.15,2013-07-15 14:35:00,
2013-07-15 09:40:00,82.3,-99.9,29.72,SE,128,0.0,2.0,255,0.00,,,0.00,Wunderground v.1.15,2013-07-15 14:40:00,
2013-07-15 09:45:00,82.7,72.3,29.72,SE,128,0.0,8.0,71,0.00,,,0.00,Wunderground v.1.15,2013-07-15 14:45:00,
2013-07-15 09:51:00,-999.9,-99.9,29.72,SE,128,0.0,9.0,69,0.00,,,0.00,Wunderground v.1.15,2013-07-15 14:51:00,
2013-07-15 09:56:00,83.2,72.0,29.72,SE,128,6.0,9.0,69,0.00,,,0.00,Wunderground v.1.15,2013-07-15 14:56:00,
2013-07-15 10:02:00,83.2,71.5,29.72,SE,128,1.0,2.0,68,0.00,,,0.00,Wunderground v.1.15,2013-07-15 15:02:00,
2013-07-15 10:07:00,83.1,71.9,29.72,SE,128,0.0,5.0,69,0.00,,,0.00,Wunderground v.1.15,2013-07-15 15:07:00,
2013-07-15 10:12:00,83.2,71.1,29.72,SE,128,0.0,4.0,67,0.00,,,0.00,Wunderground v.1.15,2013-07-15 15:12:00,
2013-07-15 10:18:00,83.1,71.9,29.72,SE,128,2.0,4.0,69,0.00,,,0.00,Wunderground v.1.15,2013-07-15 15:18:00,
2013-07-15 10:23:00,83.7,72.0,29.73,SE,128,0.0,6.0,68,0.00,,,0.00,Wunderground v.1.15,2013-07-15 15:23:00,
2013-07-15 10:29:00,83.6,71.9,29.72,SE,128,0.0,6.0,68,0.00,,,0.00,Wunderground v.1.15,2013-07-15 15:29:00,
2013-07-15 10:34:00,84.1,71.1,29.72,SE,128,0.0,8.0,65,0.00,,,0.00,Wunderground v.1.15,2013-07-15 15:34:00,
2013-07-15 10:39:00,84.5,71.9,29.72,SE,128,0.0,8.0,66,0.00,,,0.00,Wunderground v.1.15,2013-07-15 15:39:00,
2013-07-15 10:45:00,84.6,72.4,29.72,SE,128,0.0,4.0,67,0.00,,,0.00,Wunderground v.1.15,2013-07-15 15:45:00,
2013-07-15 10:50:00,84.7,70.7,29.72,SE,128,0.0,1.0,63,0.00,,,0.00,Wunderground v.1.15,2013-07-15 15:50:00,
2013-07-15 10:55:00,85.5,71.9,29.72,SE,128,0.0,6.0,64,0.00,,,0.00,Wunderground v.1.15,2013-07-15 15:55:00,
2013-07-15 11:00:00,85.1,71.5,29.73,SE,128,0.0,1.0,64,0.00,,,0.00,Wunderground v.1.15,2013-07-15 16:00:00,
2013-07-15 11:06:00,85.3,71.7,29.73,SE,128,0.0,1.0,64,0.00,,,0.00,Wunderground v.1.15,2013-07-15 16:06:00,
2013-07-15 11:11:00,-999.9,-99.9,29.72,SE,128,0.0,0.0,255,0.00,,,0.00,Wunderground v.1.15,2013-07-15 16:11:00,
2013-07-15 11:16:00,86.4,71.8,29.72,SE,128,4.0,4.0,62,0.00,,,0.00,Wunderground v.1.15,2013-07-15 16:16:00,
2013-07-15 11:22:00,86.7,74.0,29.72,SE,128,0.0,0.0,66,0.00,,,0.00,Wunderground v.1.15,2013-07-15 16:22:00,
2013-07-15 11:27:00,-999.9,-99.9,29.72,SE,128,0.0,1.0,63,0.00,,,0.00,Wunderground v.1.15,2013-07-15 16:27:00,
2013-07-15 11:32:00,86.3,73.6,29.72,SE,128,0.0,0.0,66,0.00,,,0.00,Wunderground v.1.15,2013-07-15 16:32:00,
2013-07-15 11:37:00,85.9,71.8,29.72,SE,128,0.0,0.0,63,0.00,,,0.00,Wunderground v.1.15,2013-07-15 16:37:00,
2013-07-15 11:43:00,85.8,72.7,29.71,SE,128,0.0,0.0,65,0.00,,,0.00,Wunderground v.1.15,2013-07-15 16:43:00,
2013-07-15 11:49:00,86.9,72.8,29.72,SE,128,0.0,4.0,63,0.00,,,0.00,Wunderground v.1.15,2013-07-15 16:49:00,
2013-07-15 11:54:00,87.1,73.9,29.72,SE,128,0.0,1.0,65,0.00,,,0.00,Wunderground v.1.15,2013-07-15 16:54:00,
2013-07-15 11:59:00,86.0,71.9,29.72,SE,128,0.0,5.0,63,0.00,,,0.00,Wunderground v.1.15,2013-07-15 16:59:00,
2013-07-15 12:04:00,86.6,72.0,29.72,SE,128,0.0,0.0,62,0.00,,,0.00,Wunderground v.1.15,2013-07-15 17:04:00,
2013-07-15 12:09:00,87.1,72.0,29.72,SE,128,1.0,2.0,61,0.00,,,0.00,Wunderground v.1.15,2013-07-15 17:09:00,
2013-07-15 12:15:00,87.6,73.4,29.71,SE,128,0.0,2.0,63,0.00,,,0.00,Wunderground v.1.15,2013-07-15 17:15:00,
2013-07-15 12:20:00,87.5,74.3,29.71,SE,128,0.0,0.0,65,0.00,,,0.00,Wunderground v.1.15,2013-07-15 17:20:00,
2013-07-15 12:25:00,87.0,73.8,29.71,SE,128,0.0,5.0,65,0.00,,,0.00,Wunderground v.1.15,2013-07-15 17:25:00,
2013-07-15 12:30:00,86.5,73.8,29.71,SE,128,0.0,0.0,66,0.00,,,0.00,Wunderground v.1.15,2013-07-15 17:30:00,
2013-07-15 12:35:00,86.3,74.0,29.71,SE,128,0.0,4.0,67,0.00,,,0.00,Wunderground v.1.15,2013-07-15 17:35:00,
2013-07-15 12:40:00,86.3,72.7,29.71,SE,128,2.0,2.0,64,0.00,,,0.00,Wunderground v.1.15,2013-07-15 17:40:00,
2013-07-15 12:45:00,86.2,73.5,29.71,SE,128,0.0,6.0,66,0.00,,,0.00,Wunderground v.1.15,2013-07-15 17:45:00,
2013-07-15 12:50:00,86.6,74.3,29.71,SE,128,0.0,1.0,67,0.00,,,0.00,Wunderground v.1.15,2013-07-15 17:50:00,
2013-07-15 12:56:00,87.8,74.6,29.71,SE,128,0.0,8.0,65,0.00,,,0.00,Wunderground v.1.15,2013-07-15 17:56:00,
2013-07-15 13:01:00,87.9,73.7,29.71,SE,128,0.0,4.0,63,0.00,,,0.00,Wunderground v.1.15,2013-07-15 18:01:00,
2013-07-15 13:06:00,88.2,73.5,29.70,SE,128,0.0,8.0,62,0.00,,,0.00,Wunderground v.1.15,2013-07-15 18:06:00,
2013-07-15 13:11:00,88.9,72.7,29.70,SE,128,0.0,1.0,59,0.00,,,0.00,Wunderground v.1.15,2013-07-15 18:11:00,
2013-07-15 13:16:00,88.5,73.3,29.70,SE,128,0.0,8.0,61,0.00,,,0.00,Wunderground v.1.15,2013-07-15 18:16:00,
2013-07-15 13:22:00,89.0,73.8,29.70,SE,128,2.0,5.0,61,0.00,,,0.00,Wunderground v.1.15,2013-07-15 18:22:00,
2013-07-15 13:27:00,88.6,72.9,29.70,SE,128,0.0,8.0,60,0.00,,,0.00,Wunderground v.1.15,2013-07-15 18:27:00,
2013-07-15 13:33:00,89.0,73.3,29.69,SE,128,0.0,8.0,60,0.00,,,0.00,Wunderground v.1.15,2013-07-15 18:33:00,
2013-07-15 13:38:00,88.7,73.5,29.69,SE,128,4.0,8.0,61,0.00,,,0.00,Wunderground v.1.15,2013-07-15 18:38:00,
2013-07-15 13:43:00,87.9,72.8,29.69,SE,128,2.0,8.0,61,0.00,,,0.00,Wunderground v.1.15,2013-07-15 18:43:00,
2013-07-15 13:48:00,87.8,73.6,29.69,SE,128,0.0,8.0,63,0.00,,,0.00,Wunderground v.1.15,2013-07-15 18:48:00,
2013-07-15 13:53:00,88.2,73.5,29.69,SE,128,0.0,8.0,62,0.00,,,0.00,Wunderground v.1.15,2013-07-15 18:53:00,
2013-07-15 13:58:00,88.3,73.6,29.69,SE,128,0.0,8.0,62,0.00,,,0.00,Wunderground v.1.15,2013-07-15 18:58:00,
2013-07-15 14:04:00,88.5,73.3,29.69,SE,125,0.0,5.0,61,0.00,,,0.00,Wunderground v.1.15,2013-07-15 19:04:00,
2013-07-15 14:09:00,88.6,73.9,29.68,ESE,119,4.0,9.0,62,0.00,,,0.00,Wunderground v.1.15,2013-07-15 19:09:00,
2013-07-15 14:15:00,88.6,73.4,29.68,ESE,117,0.0,11.0,61,0.00,,,0.00,Wunderground v.1.15,2013-07-15 19:15:00,
2013-07-15 14:20:00,88.6,73.9,29.69,ESE,115,2.0,2.0,62,0.00,,,0.00,Wunderground v.1.15,2013-07-15 19:20:00,
2013-07-15 14:25:00,88.9,72.7,29.68,ESE,115,0.0,7.0,59,0.00,,,0.00,Wunderground v.1.15,2013-07-15 19:25:00,
2013-07-15 14:30:00,89.0,74.3,29.68,ESE,112,0.0,2.0,62,0.00,,,0.00,Wunderground v.1.15,2013-07-15 19:30:00,
2013-07-15 14:35:00,89.0,72.8,29.68,ESE,106,0.0,13.0,59,0.00,,,0.00,Wunderground v.1.15,2013-07-15 19:35:00,
2013-07-15 14:40:00,-999.9,-99.9,29.68,East,101,1.0,4.0,60,0.00,,,0.00,Wunderground v.1.15,2013-07-15 19:40:00,
2013-07-15 14:46:00,88.7,73.0,29.68,East,96,0.0,9.0,60,0.00,,,0.00,Wunderground v.1.15,2013-07-15 19:46:00,
2013-07-15 14:51:00,88.6,72.9,29.68,East,91,0.0,3.0,60,0.00,,,0.00,Wunderground v.1.15,2013-07-15 19:51:00,
2013-07-15 14:56:00,88.8,73.6,29.68,East,89,7.0,11.0,61,0.00,,,0.00,Wunderground v.1.15,2013-07-15 19:56:00,
2013-07-15 15:01:00,88.3,73.1,29.68,East,96,5.0,8.0,61,0.00,,,0.00,Wunderground v.1.15,2013-07-15 20:01:00,
2013-07-15 15:06:00,88.5,73.8,29.68,East,96,0.0,8.0,62,0.00,,,0.00,Wunderground v.1.15,2013-07-15 20:06:00,
2013-07-15 15:11:00,88.8,75.0,29.67,East,94,0.0,7.0,64,0.00,,,0.00,Wunderground v.1.15,2013-07-15 20:11:00,
2013-07-15 15:16:00,88.1,73.0,29.67,East,92,0.0,9.0,61,0.00,,,0.00,Wunderground v.1.15,2013-07-15 20:16:00,
2013-07-15 15:21:00,87.5,72.4,29.67,East,92,6.0,6.0,61,0.00,,,0.00,Wunderground v.1.15,2013-07-15 20:21:00,
2013-07-15 15:27:00,86.8,72.2,29.67,East,92,0.0,6.0,62,0.00,,,0.00,Wunderground v.1.15,2013-07-15 20:27:00,
2013-07-15 15:32:00,86.5,73.3,29.68,East,92,0.0,0.0,65,0.00,,,0.00,Wunderground v.1.15,2013-07-15 20:32:00,
2013-07-15 15:38:00,86.6,73.4,29.67,East,92,6.0,6.0,65,0.00,,,0.00,Wunderground v.1.15,2013-07-15 20:38:00,
2013-07-15 15:43:00,86.9,73.3,29.67,East,92,0.0,0.0,64,0.00,,,0.00,Wunderground v.1.15,2013-07-15 20:43:00,
2013-07-15 15:48:00,87.1,73.9,29.67,East,92,0.0,1.0,65,0.00,,,0.00,Wunderground v.1.15,2013-07-15 20:48:00,
2013-07-15 15:53:00,-999.9,-99.9,29.67,East,92,0.0,6.0,255,0.00,,,0.00,Wunderground v.1.15,2013-07-15 20:53:00,
2013-07-15 15:58:00,87.3,73.6,29.67,East,92,0.0,6.0,64,0.00,,,0.00,Wunderground v.1.15,2013-07-15 20:58:00,
2013-07-15 16:03:00,87.1,73.9,29.67,East,92,0.0,1.0,65,0.00,,,0.00,Wunderground v.1.15,2013-07-15 21:03:00,
2013-07-15 16:09:00,86.4,74.1,29.67,East,92,0.0,4.0,67,0.00,,,0.00,Wunderground v.1.15,2013-07-15 21:09:00,
2013-07-15 16:14:00,85.7,73.5,29.67,East,92,0.0,0.0,67,0.00,,,0.00,Wunderground v.1.15,2013-07-15 21:14:00,
2013-07-15 16:20:00,85.4,74.1,29.67,East,92,0.0,0.0,69,0.00,,,0.00,Wunderground v.1.15,2013-07-15 21:20:00,
2013-07-15 16:25:00,85.2,74.7,29.67,East,92,0.0,0.0,71,0.00,,,0.00,Wunderground v.1.15,2013-07-15 21:25:00,
2013-07-15 16:30:00,85.0,72.8,29.68,ESE,115,7.0,7.0,67,0.00,,,0.00,Wunderground v.1.15,2013-07-15 21:30:00,
2013-07-15 16:35:00,83.8,72.5,29.68,South,174,0.0,13.0,69,0.00,,,0.00,Wunderground v.1.15,2013-07-15 21:35:00,
2013-07-15 16:41:00,82.0,72.5,29.68,South,185,9.0,9.0,73,0.00,,,0.00,Wunderground v.1.15,2013-07-15 21:41:00,
2013-07-15 16:46:00,80.8,72.5,29.68,South,186,5.0,9.0,76,0.00,,,0.00,Wunderground v.1.15,2013-07-15 21:46:00,
2013-07-15 16:51:00,79.4,72.7,29.68,South,186,0.0,4.0,80,0.00,,,0.00,Wunderground v.1.15,2013-07-15 21:51:00,
2013-07-15 16:57:00,78.3,72.3,29.68,South,186,0.0,8.0,82,0.00,,,0.00,Wunderground v.1.15,2013-07-15 21:57:00,
2013-07-15 17:02:00,77.6,72.0,29.67,South,186,0.0,2.0,83,0.00,,,0.00,Wunderground v.1.15,2013-07-15 22:02:00,
2013-07-15 17:07:00,77.7,72.8,29.67,South,186,0.0,2.0,85,0.00,,,0.00,Wunderground v.1.15,2013-07-15 22:07:00,
2013-07-15 17:12:00,77.9,73.0,29.67,South,186,0.0,0.0,85,0.00,,,0.00,Wunderground v.1.15,2013-07-15 22:12:00,
2013-07-15 17:17:00,78.5,73.3,29.67,South,186,0.0,0.0,84,0.00,,,0.00,Wunderground v.1.15,2013-07-15 22:17:00,
2013-07-15 17:22:00,79.2,73.9,29.67,South,186,0.0,0.0,84,0.00,,,0.00,Wunderground v.1.15,2013-07-15 22:22:00,
2013-07-15 17:28:00,80.0,74.4,29.66,South,186,0.0,1.0,83,0.00,,,0.00,Wunderground v.1.15,2013-07-15 22:28:00,
2013-07-15 17:33:00,81.0,74.6,29.66,South,186,0.0,0.0,81,0.00,,,0.00,Wunderground v.1.15,2013-07-15 22:33:00,
2013-07-15 17:38:00,82.0,74.8,29.66,South,186,0.0,0.0,79,0.00,,,0.00,Wunderground v.1.15,2013-07-15 22:38:00,
2013-07-15 17:43:00,83.0,75.4,29.66,South,186,0.0,0.0,78,0.00,,,0.00,Wunderground v.1.15,2013-07-15 22:43:00,
2013-07-15 17:48:00,84.1,76.1,29.66,South,186,0.0,0.0,77,0.00,,,0.00,Wunderground v.1.15,2013-07-15 22:48:00,
2013-07-15 17:54:00,84.8,76.0,29.66,South,186,0.0,0.0,75,0.00,,,0.00,Wunderground v.1.15,2013-07-15 22:54:00,
2013-07-15 17:59:00,85.4,75.8,29.66,South,186,0.0,0.0,73,0.00,,,0.00,Wunderground v.1.15,2013-07-15 22:59:00,
2013-07-15 18:04:00,86.0,74.6,29.66,South,186,0.0,7.0,69,0.00,,,0.00,Wunderground v.1.15,2013-07-15 23:04:00,
2013-07-15 18:10:00,87.1,75.3,29.66,South,186,0.0,0.0,68,0.00,,,0.00,Wunderground v.1.15,2013-07-15 23:10:00,
2013-07-15 18:15:00,86.8,75.0,29.66,South,186,0.0,2.0,68,0.00,,,0.00,Wunderground v.1.15,2013-07-15 23:15:00,
2013-07-15 18:20:00,86.7,75.3,29.66,South,186,0.0,0.0,69,0.00,,,0.00,Wunderground v.1.15,2013-07-15 23:20:00,
2013-07-15 18:26:00,86.4,75.0,29.66,South,186,0.0,1.0,69,0.00,,,0.00,Wunderground v.1.15,2013-07-15 23:26:00,
2013-07-15 18:32:00,86.1,75.6,29.66,South,186,0.0,0.0,71,0.00,,,0.00,Wunderground v.1.15,2013-07-15 23:32:00,
2013-07-15 18:37:00,85.9,75.4,29.66,South,186,3.0,3.0,71,0.00,,,0.00,Wunderground v.1.15,2013-07-15 23:37:00,
2013-07-15 18:42:00,85.9,75.4,29.66,South,186,0.0,0.0,71,0.00,,,0.00,Wunderground v.1.15,2013-07-15 23:42:00,
2013-07-15 18:47:00,85.9,75.4,29.66,South,186,0.0,0.0,71,0.00,,,0.00,Wunderground v.1.15,2013-07-15 23:47:00,
2013-07-15 18:52:00,86.1,75.2,29.66,South,186,0.0,0.0,70,0.00,,,0.00,Wunderground v.1.15,2013-07-15 23:52:00,
2013-07-15 18:57:00,86.2,75.3,29.66,South,186,0.0,0.0,70,0.00,,,0.00,Wunderground v.1.15,2013-07-15 23:57:00,
2013-07-15 19:02:00,86.1,75.2,29.66,South,186,0.0,0.0,70,0.00,,,0.00,Wunderground v.1.15,2013-07-16 00:02:00,
2013-07-15 19:07:00,85.9,73.7,29.65,South,186,0.0,0.0,67,0.00,,,0.00,Wunderground v.1.15,2013-07-16 00:07:00,
2013-07-15 19:13:00,86.3,74.9,29.65,South,186,0.0,0.0,69,0.00,,,0.00,Wunderground v.1.15,2013-07-16 00:13:00,
2013-07-15 19:18:00,85.9,75.4,29.66,South,186,0.0,0.0,71,0.00,,,0.00,Wunderground v.1.15,2013-07-16 00:18:00,
2013-07-15 19:23:00,85.7,75.2,29.66,South,186,0.0,0.0,71,0.00,,,0.00,Wunderground v.1.15,2013-07-16 00:23:00,
2013-07-15 19:29:00,85.8,75.3,29.66,South,186,0.0,0.0,71,0.00,,,0.00,Wunderground v.1.15,2013-07-16 00:29:00,
2013-07-15 19:34:00,85.2,75.6,29.66,South,186,0.0,5.0,73,0.00,,,0.00,Wunderground v.1.15,2013-07-16 00:34:00,
2013-07-15 19:40:00,85.0,75.4,29.66,South,186,2.0,5.0,73,0.00,,,0.00,Wunderground v.1.15,2013-07-16 00:40:00,
2013-07-15 19:45:00,-999.9,-99.9,29.67,South,186,0.0,2.0,74,0.00,,,0.00,Wunderground v.1.15,2013-07-16 00:45:00,
2013-07-15 19:50:00,84.0,74.8,29.67,South,186,0.0,0.0,74,0.00,,,0.00,Wunderground v.1.15,2013-07-16 00:50:00,
2013-07-15 19:55:00,83.8,75.0,29.66,South,186,0.0,6.0,75,0.00,,,0.00,Wunderground v.1.15,2013-07-16 00:55:00,
2013-07-15 20:00:00,83.3,74.9,29.66,South,186,0.0,0.0,76,0.00,,,0.00,Wunderground v.1.15,2013-07-16 01:00:00,
2013-07-15 20:05:00,83.1,74.4,29.67,South,186,0.0,0.0,75,0.00,,,0.00,Wunderground v.1.15,2013-07-16 01:05:00,
2013-07-15 20:10:00,82.9,74.6,29.67,South,186,0.0,0.0,76,0.00,,,0.00,Wunderground v.1.15,2013-07-16 01:10:00,
2013-07-15 20:15:00,-999.9,-99.9,29.67,South,186,0.0,3.0,75,0.00,,,0.00,Wunderground v.1.15,2013-07-16 01:15:00,
2013-07-15 20:20:00,82.4,74.1,29.67,South,186,0.0,0.0,76,0.00,,,0.00,Wunderground v.1.15,2013-07-16 01:20:00,
2013-07-15 20:25:00,82.3,74.0,29.67,South,186,0.0,1.0,76,0.00,,,0.00,Wunderground v.1.15,2013-07-16 01:25:00,
2013-07-15 20:30:00,83.0,74.6,29.67,South,186,0.0,2.0,76,0.00,,,0.00,Wunderground v.1.15,2013-07-16 01:30:00,
2013-07-15 20:35:00,82.0,-99.9,29.67,South,186,0.0,2.0,255,0.00,,,0.00,Wunderground v.1.15,2013-07-16 01:35:00,
2013-07-15 20:40:00,81.6,74.1,29.67,South,186,0.0,0.0,78,0.00,,,0.00,Wunderground v.1.15,2013-07-16 01:40:00,
2013-07-15 20:45:00,81.4,73.9,29.67,South,186,0.0,0.0,78,0.00,,,0.00,Wunderground v.1.15,2013-07-16 01:45:00,
2013-07-15 20:50:00,81.4,73.9,29.67,South,186,0.0,3.0,78,0.00,,,0.00,Wunderground v.1.15,2013-07-16 01:50:00,
2013-07-15 20:55:00,81.2,74.1,29.67,South,186,2.0,3.0,79,0.00,,,0.00,Wunderground v.1.15,2013-07-16 01:55:00,
2013-07-15 21:00:00,80.9,75.2,29.69,ESE,105,7.0,7.0,83,0.00,,,0.00,Wunderground v.1.15,2013-07-16 02:00:00,
2013-07-15 21:05:00,80.0,75.1,29.69,East,81,7.0,10.0,85,0.21,,,0.02,Wunderground v.1.15,2013-07-16 02:05:00,
2013-07-15 21:10:00,78.9,74.0,29.69,East,98,6.0,6.0,85,0.21,,,0.04,Wunderground v.1.15,2013-07-16 02:10:00,
2013-07-15 21:15:00,78.2,73.7,29.69,East,98,0.0,6.0,86,0.21,,,0.06,Wunderground v.1.15,2013-07-16 02:15:00,
2013-07-15 21:21:00,77.7,73.5,29.69,East,98,5.0,5.0,87,0.21,,,0.09,Wunderground v.1.15,2013-07-16 02:21:00,
2013-07-15 21:27:00,77.3,73.5,29.69,East,98,0.0,5.0,88,0.19,,,0.10,Wunderground v.1.15,2013-07-16 02:27:00,
2013-07-15 21:32:00,77.1,73.6,29.69,East,98,0.0,0.0,89,0.22,,,0.12,Wunderground v.1.15,2013-07-16 02:32:00,
2013-07-15 21:37:00,77.1,-99.9,29.69,East,98,0.0,0.0,255,0.22,,,0.14,Wunderground v.1.15,2013-07-16 02:37:00,
2013-07-15 21:42:00,77.3,73.8,29.69,East,98,0.0,0.0,89,0.14,,,0.15,Wunderground v.1.15,2013-07-16 02:42:00,
2013-07-15 21:48:00,76.7,73.5,29.70,East,98,0.0,0.0,90,0.08,,,0.15,Wunderground v.1.15,2013-07-16 02:48:00,
2013-07-15 21:53:00,76.7,73.9,29.70,East,98,0.0,0.0,91,0.05,,,0.15,Wunderground v.1.15,2013-07-16 02:53:00,
2013-07-15 21:58:00,76.8,74.0,29.70,East,98,0.0,0.0,91,0.00,,,0.15,Wunderground v.1.15,2013-07-16 02:58:00,
2013-07-15 22:03:00,-79.7,-99.9,29.70,East,98,0.0,0.0,255,0.00,,,0.15,Wunderground v.1.15,2013-07-16 03:03:00,
2013-07-15 22:08:00,76.7,73.9,29.70,East,98,0.0,0.0,91,0.00,,,0.15,Wunderground v.1.15,2013-07-16 03:08:00,
2013-07-15 22:14:00,76.8,74.3,29.70,East,98,0.0,0.0,92,0.00,,,0.15,Wunderground v.1.15,2013-07-16 03:14:00,
2013-07-15 22:19:00,76.4,73.9,29.70,East,98,0.0,0.0,92,0.00,,,0.15,Wunderground v.1.15,2013-07-16 03:19:00,
2013-07-15 22:24:00,76.4,73.9,29.71,East,98,0.0,0.0,92,0.00,,,0.15,Wunderground v.1.15,2013-07-16 03:24:00,
2013-07-15 22:29:00,76.4,73.9,29.71,East,98,0.0,0.0,92,0.00,,,0.15,Wunderground v.1.15,2013-07-16 03:29:00,
2013-07-15 22:34:00,76.5,74.0,29.71,East,98,0.0,2.0,92,0.00,,,0.15,Wunderground v.1.15,2013-07-16 03:34:00,
2013-07-15 22:39:00,76.3,73.8,29.71,East,95,0.0,2.0,92,0.00,,,0.15,Wunderground v.1.15,2013-07-16 03:39:00,
2013-07-15 22:45:00,76.3,73.8,29.71,East,98,0.0,5.0,92,0.00,,,0.15,Wunderground v.1.15,2013-07-16 03:45:00,
2013-07-15 22:50:00,76.1,73.6,29.71,East,98,0.0,5.0,92,0.00,,,0.15,Wunderground v.1.15,2013-07-16 03:50:00,
2013-07-15 22:55:00,76.0,73.5,29.71,East,98,0.0,0.0,92,0.00,,,0.15,Wunderground v.1.15,2013-07-16 03:55:00,
2013-07-15 23:00:00,75.9,73.4,29.72,East,98,0.0,0.0,92,0.00,,,0.15,Wunderground v.1.15,2013-07-16 04:00:00,
2013-07-15 23:01:00,75.9,73.4,29.72,East,98,0.0,0.0,92,0.00,,,0.15,Wunderground v.1.15,2013-07-16 04:01:00,
2013-07-15 23:07:00,75.8,73.3,29.72,East,98,0.0,0.0,92,0.00,,,0.15,Wunderground v.1.15,2013-07-16 04:07:00,
2013-07-15 23:12:00,75.9,73.7,29.72,East,98,0.0,0.0,93,0.00,,,0.15,Wunderground v.1.15,2013-07-16 04:12:00,
2013-07-15 23:16:00,75.8,73.6,29.72,East,98,0.0,0.0,93,0.00,,,0.15,Wunderground v.1.15,2013-07-16 04:16:00,
2013-07-15 23:22:00,75.7,73.5,29.72,East,98,0.0,0.0,93,0.00,,,0.15,Wunderground v.1.15,2013-07-16 04:22:00,
2013-07-15 23:27:00,75.7,73.5,29.72,East,98,0.0,0.0,93,0.00,,,0.15,Wunderground v.1.15,2013-07-16 04:27:00,
2013-07-15 23:32:00,75.5,73.3,29.72,East,98,0.0,0.0,93,0.00,,,0.15,Wunderground v.1.15,2013-07-16 04:32:00,
2013-07-15 23:37:00,75.5,73.3,29.72,East,98,0.0,0.0,93,0.00,,,0.15,Wunderground v.1.15,2013-07-16 04:37:00,
2013-07-15 23:42:00,76.0,-99.9,29.72,East,95,0.0,0.0,255,0.00,,,0.15,Wunderground v.1.15,2013-07-16 04:42:00,
2013-07-15 23:47:00,75.6,73.4,29.73,East,98,0.0,0.0,93,0.00,,,0.15,Wunderground v.1.15,2013-07-16 04:47:00,
2013-07-15 23:52:00,75.0,72.8,29.72,East,98,0.0,0.0,93,0.00,,,0.15,Wunderground v.1.15,2013-07-16 04:52:00,
2013-07-15 23:57:00,74.9,72.7,29.72,East,98,0.0,0.0,93,0.00,,,0.15,Wunderground v.1.15,2013-07-16 04:57:00,